Time;durP1;ratioP1;P1;durP2;ratioP2;P2;SDS_P1;SDS_P2;PMS_P1;PMS_P2;Temp;Humidity;BMP_temperature;BMP_pressure;BME280_temperature;BME280_humidity;BME280_pressure;Samples;Min_cycle;Max_cycle;Signal;HPM_P1;HPM_P2
2021/05/14 00:00:41;;;;;;;5.40;4.85;;;;;;;12.43;41.28;100040.47;4983543;28;99242;-71
2021/05/14 00:03:09;;;;;;;5.28;4.78;;;;;;;12.43;41.12;100039.56;4984479;28;99035;-71
2021/05/14 00:05:36;;;;;;;8.35;5.65;;;;;;;12.43;41.27;100045.81;4983271;28;97839;-72
2021/05/14 00:08:06;;;;;;;5.80;5.20;;;;;;;12.45;41.11;100040.47;4984378;28;99339;-70
2021/05/14 00:10:37;;;;;;;5.97;5.55;;;;;;;12.50;41.14;100044.00;4983696;28;98554;-72
2021/05/14 00:13:06;;;;;;;5.78;5.22;;;;;;;12.53;41.07;100034.25;4982263;28;98212;-70
2021/05/14 00:15:34;;;;;;;5.50;4.90;;;;;;;12.55;40.88;100039.56;4985106;28;96853;-71
2021/05/14 00:18:02;;;;;;;6.15;5.55;;;;;;;12.54;41.06;100032.47;4984521;28;97662;-71
2021/05/14 00:20:30;;;;;;;7.77;7.07;;;;;;;12.52;41.67;100043.16;4983995;28;98157;-71
2021/05/14 00:22:58;;;;;;;7.65;6.95;;;;;;;12.51;41.91;100035.16;4981772;28;98256;-70
2021/05/14 00:25:26;;;;;;;8.10;7.10;;;;;;;12.49;42.11;100034.25;4982151;28;97956;-71
2021/05/14 00:27:55;;;;;;;8.45;6.85;;;;;;;12.52;42.29;100034.25;4983388;28;97440;-71
2021/05/14 00:30:23;;;;;;;7.60;6.80;;;;;;;12.53;42.40;100033.38;4981636;28;96865;-71
2021/05/14 00:32:51;;;;;;;8.23;7.00;;;;;;;12.56;42.35;100030.69;4983247;28;99074;-70
2021/05/14 00:35:19;;;;;;;7.57;6.87;;;;;;;12.57;42.31;100032.47;4983634;28;98558;-70
2021/05/14 00:37:46;;;;;;;8.55;7.18;;;;;;;12.59;42.20;100026.25;4983089;28;97185;-70
2021/05/14 00:40:16;;;;;;;7.65;6.95;;;;;;;12.62;42.35;100030.72;4981511;28;97373;-70
2021/05/14 00:42:44;;;;;;;7.53;6.82;;;;;;;12.64;42.11;100031.56;4983103;28;98971;-72
2021/05/14 00:45:13;;;;;;;8.00;7.20;;;;;;;12.67;42.23;100031.59;4983881;28;97730;-71
2021/05/14 00:47:41;;;;;;;7.43;6.72;;;;;;;12.67;42.22;100024.50;4983973;28;96871;-71
2021/05/14 00:50:10;;;;;;;7.22;6.55;;;;;;;12.71;42.03;100023.56;4966163;28;97905;-72
2021/05/14 00:52:38;;;;;;;6.93;6.25;;;;;;;12.72;42.04;100027.13;4982397;28;99110;-72
2021/05/14 00:55:07;;;;;;;7.63;6.93;;;;;;;12.72;41.87;100025.38;4983524;28;98884;-71
2021/05/14 00:57:37;;;;;;;6.97;6.28;;;;;;;12.75;41.75;100021.78;4983615;28;98734;-72
2021/05/14 01:00:06;;;;;;;6.82;6.28;;;;;;;12.75;41.84;100022.69;4997775;28;96905;-72
2021/05/14 01:02:35;;;;;;;7.32;6.63;;;;;;;12.77;41.77;100009.34;4982713;28;102482;-72
2021/05/14 01:05:03;;;;;;;6.97;6.30;;;;;;;12.76;41.72;100015.56;4985351;28;98468;-72
2021/05/14 01:07:30;;;;;;;6.55;6.05;;;;;;;12.74;41.89;100010.25;4985966;28;97866;-71
2021/05/14 01:09:59;;;;;;;7.10;6.40;;;;;;;12.75;41.81;100016.44;4984428;28;97911;-72
2021/05/14 01:12:27;;;;;;;6.63;6.03;;;;;;;12.79;41.75;100018.22;4986280;28;98753;-72
2021/05/14 01:14:55;;;;;;;5.78;5.25;;;;;;;12.82;41.71;100010.25;4986771;28;99094;-72
2021/05/14 01:17:23;;;;;;;6.78;6.13;;;;;;;12.83;41.47;100009.34;4968436;28;98206;-72
2021/05/14 01:19:51;;;;;;;6.40;5.90;;;;;;;12.83;41.38;100010.25;5001095;28;97020;-71
2021/05/14 01:22:20;;;;;;;6.75;6.15;;;;;;;12.84;41.34;100012.00;4986240;28;98651;-72
2021/05/14 01:24:47;;;;;;;7.47;6.30;;;;;;;12.90;41.33;100009.34;4985152;28;97823;-71
2021/05/14 01:27:15;;;;;;;6.38;5.75;;;;;;;12.91;41.30;100013.78;4984509;28;97308;-72
2021/05/14 01:29:44;;;;;;;7.13;6.50;;;;;;;12.91;41.16;100012.91;4984859;28;97213;-72
2021/05/14 01:32:13;;;;;;;6.38;5.78;;;;;;;12.91;41.17;100008.44;4986245;28;97983;-72
2021/05/14 01:34:43;;;;;;;6.38;5.78;;;;;;;12.85;41.35;100002.22;4984293;28;97820;-72
2021/05/14 01:37:12;;;;;;;6.10;5.50;;;;;;;12.85;41.12;100007.56;4986276;28;97813;-72
2021/05/14 01:39:41;;;;;;;6.17;5.57;;;;;;;12.83;41.17;100004.91;4986173;28;97057;-72
2021/05/14 01:42:09;;;;;;;6.40;5.80;;;;;;;12.85;41.15;100008.47;4983366;28;97973;-72
2021/05/14 01:44:36;;;;;;;7.13;6.43;;;;;;;12.83;41.30;100006.66;4985830;28;99117;-72
2021/05/14 01:47:04;;;;;;;6.78;6.18;;;;;;;12.80;41.25;100009.34;4985863;28;97082;-71
2021/05/14 01:49:32;;;;;;;6.90;6.05;;;;;;;12.77;41.46;100009.34;4984641;28;97462;-72
2021/05/14 01:52:00;;;;;;;7.27;6.57;;;;;;;12.79;41.56;100013.78;4983941;28;99060;-72
2021/05/14 01:54:28;;;;;;;6.80;6.20;;;;;;;12.82;41.46;100012.91;4983869;28;97938;-72
2021/05/14 01:56:56;;;;;;;8.65;7.13;;;;;;;12.87;41.44;100011.13;4985564;28;97188;-72
2021/05/14 01:59:24;;;;;;;7.45;6.65;;;;;;;12.92;41.16;100014.69;4985517;28;97047;-70
2021/05/14 02:01:54;;;;;;;8.02;7.22;;;;;;;;;;4979945;28;100301;-72
2021/05/14 02:04:23;;;;;;;9.15;8.10;;;;;;;12.96;41.11;100016.47;4984860;28;97496;-71
2021/05/14 02:06:51;;;;;;;9.27;8.10;;;;;;;12.94;41.17;100013.81;4983606;28;97744;-71
2021/05/14 02:09:19;;;;;;;8.63;7.83;;;;;;;12.95;41.33;100014.66;4983926;28;97005;-71
2021/05/14 02:11:47;;;;;;;11.00;8.35;;;;;;;12.95;41.28;100012.91;4985293;28;97804;-71
2021/05/14 02:14:16;;;;;;;8.15;7.35;;;;;;;12.94;41.24;100004.88;4984458;28;97508;-72
2021/05/14 02:16:44;;;;;;;8.35;7.55;;;;;;;12.91;41.44;100010.25;4983665;28;96799;-72
2021/05/14 02:19:13;;;;;;;8.25;7.43;;;;;;;12.85;41.36;100015.56;4983664;28;96923;-71
2021/05/14 02:21:41;;;;;;;8.65;7.80;;;;;;;12.85;41.36;100002.22;4985434;28;98825;-71
2021/05/14 02:24:09;;;;;;;9.05;8.15;;;;;;;12.87;41.39;100005.78;4985296;28;97083;-72
2021/05/14 02:26:37;;;;;;;9.18;8.15;;;;;;;12.85;41.61;100004.91;4985156;28;97733;-72
2021/05/14 02:29:05;;;;;;;9.88;8.75;;;;;;;12.83;41.46;100012.00;4983985;28;97662;-72
2021/05/14 02:31:34;;;;;;;8.50;7.63;;;;;;;12.82;41.54;100007.59;4984862;28;98998;-71
2021/05/14 02:34:02;;;;;;;9.10;8.20;;;;;;;12.84;41.57;100006.66;4983754;28;97837;-72
2021/05/14 02:36:30;;;;;;;9.50;8.50;;;;;;;12.84;41.36;100008.44;4984737;28;96931;-72
2021/05/14 02:38:58;;;;;;;9.17;7.60;;;;;;;12.87;41.29;100005.78;4983673;28;97476;-71
2021/05/14 02:41:26;;;;;;;9.75;8.00;;;;;;;12.86;41.50;100007.56;4985034;28;98133;-72
2021/05/14 02:43:54;;;;;;;9.60;7.65;;;;;;;12.84;41.57;100004.00;4984812;28;97132;-71
2021/05/14 02:46:22;;;;;;;8.38;7.57;;;;;;;12.85;41.55;100002.22;4997498;28;97279;-71
2021/05/14 02:48:51;;;;;;;9.88;8.38;;;;;;;12.88;41.49;100007.56;4985367;28;97070;-72
2021/05/14 02:51:19;;;;;;;9.40;7.67;;;;;;;12.95;41.42;100020.00;4985105;28;98968;-76
2021/05/14 02:53:46;;;;;;;8.95;8.00;;;;;;;12.95;41.47;100012.91;4984971;28;97887;-73
2021/05/14 02:56:14;;;;;;;8.53;7.63;;;;;;;12.95;41.43;100009.31;4985977;28;97102;-75
2021/05/14 02:58:42;;;;;;;9.65;8.07;;;;;;;12.94;41.30;100019.13;4985704;28;97725;-72
2021/05/14 03:01:10;;;;;;;9.20;7.93;;;;;;;12.92;41.28;100014.69;4983127;28;97890;-73
2021/05/14 03:03:38;;;;;;;11.00;7.97;;;;;;;12.85;41.44;100008.47;4983804;28;99546;-72
2021/05/14 03:06:10;;;;;;;8.90;8.00;;;;;;;12.85;41.54;100011.13;4985548;28;97249;-72
2021/05/14 03:08:38;;;;;;;8.48;7.65;;;;;;;12.83;41.52;100015.59;4984606;28;96816;-72
2021/05/14 03:11:06;;;;;;;9.80;7.93;;;;;;;12.87;41.53;100016.47;4984459;28;98671;-72
2021/05/14 03:13:34;;;;;;;9.37;8.37;;;;;;;12.92;41.38;100014.69;4984570;28;96861;-73
2021/05/14 03:16:01;;;;;;;9.43;7.93;;;;;;;12.92;41.46;100018.25;4985108;28;97074;-73
2021/05/14 03:18:29;;;;;;;8.67;7.00;;;;;;;12.94;41.27;100020.91;4982986;28;97593;-72
2021/05/14 03:20:59;;;;;;;7.80;7.07;;;;;;;12.94;41.25;100023.59;4982989;28;97943;-72
2021/05/14 03:23:27;;;;;;;7.82;7.03;;;;;;;12.91;41.28;100020.94;4984269;28;98236;-73
2021/05/14 03:25:55;;;;;;;8.32;6.78;;;;;;;12.86;41.39;100020.00;4984256;28;96869;-73
2021/05/14 03:28:27;;;;;;;9.02;7.00;;;;;;;12.86;41.30;100028.03;4981481;28;97718;-71
2021/05/14 03:30:55;;;;;;;8.40;6.80;;;;;;;12.89;41.29;100022.69;4983807;28;99132;-72
2021/05/14 03:33:24;;;;;;;7.82;7.05;;;;;;;12.87;41.11;100019.13;4985163;28;98966;-73
2021/05/14 03:35:53;;;;;;;8.27;6.88;;;;;;;12.88;41.16;100026.25;4984268;28;97492;-72
2021/05/14 03:38:22;;;;;;;8.73;6.85;;;;;;;12.90;41.19;100024.47;4984766;28;96989;-72
2021/05/14 03:40:51;;;;;;;7.45;6.72;;;;;;;12.98;41.07;100030.72;4983394;28;99196;-72
2021/05/14 03:43:21;;;;;;;9.30;6.82;;;;;;;13.00;41.05;100039.66;4984563;28;98131;-72
2021/05/14 03:45:49;;;;;;;8.20;7.37;;;;;;;12.99;41.08;100032.47;4983005;28;97204;-71
2021/05/14 03:48:22;;;;;;;7.68;6.88;;;;;;;12.97;40.96;100035.16;4983466;28;97317;-72
2021/05/14 03:50:57;;;;;;;8.63;7.80;;;;;;;12.95;41.10;100036.03;5002332;28;100929;-71
2021/05/14 03:53:30;;;;;;;8.50;7.45;;;;;;;12.96;40.98;100036.06;4983183;28;98647;-72
2021/05/14 03:56:01;;;;;;;9.27;8.20;;;;;;;12.96;40.94;100030.72;4986096;28;97544;-71
2021/05/14 03:58:29;;;;;;;10.20;9.10;;;;;;;12.94;41.09;100037.84;4987415;28;97541;-72
2021/05/14 04:00:57;;;;;;;10.20;8.55;;;;;;;12.95;41.12;100036.94;5001052;28;98287;-71
2021/05/14 04:03:34;;;;;;;10.18;8.15;;;;;;;13.01;40.95;100028.97;4983643;28;97846;-71
2021/05/14 04:06:07;;;;;;;9.75;8.32;;;;;;;13.00;40.83;100034.31;4983724;28;98658;-72
2021/05/14 04:08:37;;;;;;;10.32;7.97;;;;;;;12.99;41.00;100030.75;4984009;28;97425;-70
2021/05/14 04:11:41;;;;;;;8.83;7.90;;;;;;;13.00;41.04;100034.31;4982857;28;97113;-73
2021/05/14 04:14:29;;;;;;;10.25;8.45;;;;;;;12.99;41.06;100043.16;4983529;28;97800;-69
2021/05/14 04:17:08;;;;;;;10.38;9.27;;;;;;;12.95;41.18;100039.59;4984214;28;97085;-70
2021/05/14 04:19:36;;;;;;;109.43;65.05;;;;;;;13.00;41.08;100031.63;4998193;28;97181;-71
2021/05/14 04:22:04;;;;;;;11.60;9.15;;;;;;;13.02;40.95;100032.53;4983528;28;98854;-72
2021/05/14 04:24:33;;;;;;;10.00;8.90;;;;;;;13.05;41.10;100028.06;4984558;28;97773;-72
2021/05/14 04:27:04;;;;;;;10.70;8.70;;;;;;;13.07;40.90;100031.63;4981499;28;97274;-70
2021/05/14 04:29:32;;;;;;;11.15;9.57;;;;;;;13.09;40.86;100028.97;4983964;28;97557;-69
2021/05/14 04:31:59;;;;;;;11.68;9.75;;;;;;;13.12;40.83;100028.94;4982589;28;98149;-71
2021/05/14 04:34:29;;;;;;;12.30;9.52;;;;;;;13.11;40.89;100022.69;4983403;28;99772;-71
2021/05/14 04:37:03;;;;;;;11.60;9.40;;;;;;;13.17;40.82;100029.81;4981829;28;97256;-70
2021/05/14 04:39:30;;;;;;;13.32;9.90;;;;;;;13.20;40.97;100027.16;4983389;28;97044;-69
2021/05/14 04:41:58;;;;;;;12.80;9.57;;;;;;;13.23;40.96;100023.56;4987024;28;99024;-73
2021/05/14 04:44:28;;;;;;;13.23;10.27;;;;;;;13.21;40.87;100026.25;4986779;28;97940;-71
2021/05/14 04:46:57;;;;;;;15.07;10.10;;;;;;;13.21;40.96;100026.25;4987571;28;96979;-71
2021/05/14 04:49:26;;;;;;;13.57;10.38;;;;;;;13.22;40.99;100035.16;4983247;28;97059;-72
2021/05/14 04:51:54;;;;;;;12.85;10.40;;;;;;;13.14;41.04;100033.41;4984410;28;98441;-71
2021/05/14 04:54:22;;;;;;;13.32;10.90;;;;;;;13.19;40.88;100025.38;4987673;28;97853;-72
2021/05/14 04:56:50;;;;;;;32.10;22.43;;;;;;;13.21;41.20;100031.59;4986241;28;97327;-72
2021/05/14 04:59:18;;;;;;;17.17;13.60;;;;;;;13.24;41.06;100034.25;4984861;28;96869;-72
2021/05/14 05:01:47;;;;;;;14.40;11.60;;;;;;;13.24;41.06;100036.91;4985385;28;97988;-72
2021/05/14 05:04:16;;;;;;;16.27;11.77;;;;;;;13.29;41.08;100040.50;4985579;28;97305;-72
2021/05/14 05:06:44;;;;;;;13.38;11.20;;;;;;;13.37;41.01;100054.72;4976089;28;97831;-72
2021/05/14 05:09:12;;;;;;;13.38;10.90;;;;;;;13.40;40.83;100056.50;4983321;28;97212;-72
2021/05/14 05:11:40;;;;;;;13.70;11.23;;;;;;;13.44;40.80;100048.47;4981694;28;99054;-72
2021/05/14 05:14:08;;;;;;;12.65;10.68;;;;;;;13.42;40.83;100049.38;4985281;28;98989;-72
2021/05/14 05:16:36;;;;;;;15.57;12.23;;;;;;;13.48;40.82;100044.91;4985397;28;98272;-73
2021/05/14 05:19:05;;;;;;;25.90;18.00;;;;;;;13.49;40.83;100051.13;4984314;28;98662;-72
2021/05/14 05:21:33;;;;;;;16.33;12.15;;;;;;;13.47;40.77;100055.59;4967889;28;97846;-73
2021/05/14 05:24:01;;;;;;;13.67;11.60;;;;;;;13.42;40.97;100060.97;4985244;28;99087;-71
2021/05/14 05:26:30;;;;;;;16.55;11.75;;;;;;;13.38;41.03;100053.84;4986380;28;97817;-72
2021/05/14 05:28:57;;;;;;;15.35;13.00;;;;;;;13.37;41.12;100062.72;4984340;28;97459;-73
2021/05/14 05:31:25;;;;;;;17.42;13.30;;;;;;;13.35;41.16;100059.16;4986666;28;98175;-72
2021/05/14 05:33:54;;;;;;;17.90;14.43;;;;;;;13.38;41.26;100067.22;4985875;28;97177;-73
2021/05/14 05:36:23;;;;;;;18.20;14.20;;;;;;;13.38;41.22;100069.88;4984680;28;96840;-73
2021/05/14 05:38:51;;;;;;;19.38;14.05;;;;;;;13.39;41.29;100065.41;4986861;28;97139;-73
2021/05/14 05:41:19;;;;;;;20.02;14.93;;;;;;;13.38;41.32;100077.91;4983424;28;97842;-72
2021/05/14 05:43:46;;;;;;;20.30;15.40;;;;;;;13.36;41.30;100077.00;4985503;28;97920;-73
2021/05/14 05:46:14;;;;;;;19.52;15.13;;;;;;;13.36;41.27;100077.00;4985411;28;97110;-74
2021/05/14 05:48:45;;;;;;;20.50;15.10;;;;;;;13.41;41.24;100068.97;4986524;28;97448;-73
2021/05/14 05:51:14;;;;;;;19.60;15.05;;;;;;;13.38;41.40;100072.56;4988429;28;99156;-72
2021/05/14 05:53:42;;;;;;;46.53;30.47;;;;;;;13.42;41.42;100087.69;4987754;28;96991;-72
2021/05/14 05:56:11;;;;;;;22.05;16.98;;;;;;;13.43;41.41;100078.78;4987509;28;96980;-73
2021/05/14 05:58:39;;;;;;;18.92;14.88;;;;;;;13.40;41.42;100076.13;4987371;28;97029;-72
2021/05/14 06:01:07;;;;;;;23.00;14.80;;;;;;;13.39;41.49;100076.09;4987504;28;97965;-72
2021/05/14 06:03:35;;;;;;;16.30;13.77;;;;;;;13.39;41.52;100077.00;4985917;28;97311;-72
2021/05/14 06:06:03;;;;;;;18.83;14.33;;;;;;;13.40;41.50;100081.47;4986631;28;97638;-71
2021/05/14 06:08:31;;;;;;;18.77;13.63;;;;;;;13.41;41.42;100087.66;4985412;28;97226;-72
2021/05/14 06:11:00;;;;;;;18.33;13.02;;;;;;;13.36;41.52;100093.03;4984685;28;100051;-72
2021/05/14 06:13:28;;;;;;;16.52;13.13;;;;;;;13.35;41.51;100079.69;4985571;28;98394;-72
2021/05/14 06:15:59;;;;;;;16.50;12.97;;;;;;;13.39;41.42;100086.78;4985390;28;97761;-72
2021/05/14 06:18:30;;;;;;;16.17;12.47;;;;;;;13.38;41.51;100090.34;4981338;28;98279;-72
2021/05/14 06:20:59;;;;;;;35.13;22.20;;;;;;;13.40;41.30;100089.47;4980548;28;99361;-72
2021/05/14 06:23:27;;;;;;;13.63;10.90;;;;;;;13.37;41.25;100088.59;4979483;28;97854;-72
2021/05/14 06:25:54;;;;;;;12.40;10.57;;;;;;;13.32;40.80;100085.91;4983837;28;97540;-72
2021/05/14 06:28:25;;;;;;;13.93;10.70;;;;;;;13.32;41.03;100088.59;4982394;28;97604;-72
2021/05/14 06:30:53;;;;;;;13.32;10.55;;;;;;;13.35;41.06;100085.03;4982911;28;100407;-72
2021/05/14 06:33:21;;;;;;;11.73;10.10;;;;;;;13.37;41.09;100093.94;4983503;28;97942;-71
2021/05/14 06:35:50;;;;;;;12.98;10.23;;;;;;;13.39;40.95;100093.03;4983439;28;96879;-72
2021/05/14 06:38:18;;;;;;;14.05;10.82;;;;;;;13.36;41.02;100095.72;4983239;28;97251;-72
2021/05/14 06:40:45;;;;;;;13.52;9.90;;;;;;;13.26;41.06;100085.91;4983389;28;97741;-72
2021/05/14 06:43:16;;;;;;;11.50;10.30;;;;;;;13.32;41.11;100096.59;4988382;28;98407;-72
2021/05/14 06:45:45;;;;;;;12.52;10.00;;;;;;;13.37;41.18;100092.13;4983637;28;97027;-72
2021/05/14 06:48:14;;;;;;;11.25;9.48;;;;;;;13.41;40.92;100088.56;4984832;28;97165;-72
2021/05/14 06:50:42;;;;;;;60.75;38.45;;;;;;;13.47;40.97;100101.03;4984740;28;99097;-72
2021/05/14 06:53:10;;;;;;;13.30;9.75;;;;;;;13.48;40.83;100090.34;4984404;28;97756;-71
2021/05/14 06:55:38;;;;;;;9.33;7.50;;;;;;;13.50;40.60;100095.66;4983901;28;97330;-71
2021/05/14 06:58:05;;;;;;;8.85;7.95;;;;;;;13.46;40.42;100101.94;4982422;28;97942;-72
2021/05/14 07:00:36;;;;;;;9.73;7.93;;;;;;;13.40;40.54;100105.50;4983384;28;99369;-72
2021/05/14 07:03:05;;;;;;;9.43;7.95;;;;;;;13.32;40.23;100103.72;4982632;28;97842;-72
2021/05/14 07:05:33;;;;;;;7.88;7.07;;;;;;;13.28;40.43;100113.53;4983624;28;97034;-72
2021/05/14 07:08:01;;;;;;;8.65;7.70;;;;;;;13.30;40.31;100114.41;4982832;28;96847;-72
2021/05/14 07:10:29;;;;;;;9.85;7.88;;;;;;;13.37;40.37;100120.66;4998174;28;98216;-72
2021/05/14 07:12:57;;;;;;;20.02;13.95;;;;;;;13.39;40.26;100130.44;4983075;28;97859;-72
2021/05/14 07:15:25;;;;;;;10.38;8.60;;;;;;;13.43;40.05;100124.22;4982910;28;97544;-72
2021/05/14 07:17:53;;;;;;;8.83;6.70;;;;;;;13.47;39.99;100119.75;4983695;28;98065;-73
2021/05/14 07:20:22;;;;;;;8.38;6.72;;;;;;;13.52;39.72;100126.88;4981846;28;97887;-72
2021/05/14 07:22:50;;;;;;;6.70;5.63;;;;;;;13.54;39.84;100129.53;4983360;28;97902;-73
2021/05/14 07:25:18;;;;;;;9.00;5.78;;;;;;;13.54;39.60;100135.78;4982343;28;97017;-72
2021/05/14 07:27:46;;;;;;;7.05;5.53;;;;;;;13.57;39.47;100133.09;4982926;28;97288;-71
2021/05/14 07:30:15;;;;;;;6.93;5.87;;;;;;;13.62;39.23;100136.63;4979664;28;99196;-72
2021/05/14 07:32:43;;;;;;;6.43;5.43;;;;;;;13.66;39.09;100130.41;4983403;28;97854;-71
2021/05/14 07:35:11;;;;;;;6.82;5.57;;;;;;;13.65;38.90;100133.06;4982095;28;97839;-71
2021/05/14 07:37:41;;;;;;;25.20;16.50;;;;;;;13.64;39.00;100132.19;4998716;28;97554;-72
2021/05/14 07:40:10;;;;;;;6.47;5.88;;;;;;;13.64;38.98;100132.19;4979858;28;99017;-72
2021/05/14 07:42:38;;;;;;;7.43;5.80;;;;;;;13.63;39.02;100135.75;4981114;28;98109;-72
2021/05/14 07:45:06;;;;;;;6.50;5.70;;;;;;;13.73;38.92;100132.16;4982109;28;97802;-71
2021/05/14 07:47:40;;;;;;;6.35;5.75;;;;;;;13.72;38.82;100135.75;4981540;28;97844;-71
2021/05/14 07:50:09;;;;;;;6.68;5.93;;;;;;;13.76;38.72;100140.19;4981003;28;98785;-72
2021/05/14 07:52:39;;;;;;;7.47;6.23;;;;;;;13.77;38.39;100131.28;4979678;28;98903;-71
2021/05/14 07:55:09;;;;;;;6.90;6.25;;;;;;;13.82;38.64;100140.19;4981700;28;96912;-72
2021/05/14 07:57:36;;;;;;;7.35;6.47;;;;;;;13.93;38.39;100121.47;4979302;28;97230;-71
2021/05/14 08:00:05;;;;;;;7.50;6.32;;;;;;;13.98;38.31;100133.94;4980304;28;99900;-71
2021/05/14 08:02:33;;;;;;;7.20;6.50;;;;;;;14.00;38.07;100132.16;4980665;28;98171;-72
2021/05/14 08:05:01;;;;;;;8.55;6.78;;;;;;;14.02;38.06;100141.03;4977575;28;98304;-71
2021/05/14 08:07:29;;;;;;;11.82;7.32;;;;;;;14.05;38.03;100129.44;4973872;28;97961;-72
2021/05/14 08:09:57;;;;;;;8.13;7.32;;;;;;;14.09;38.01;100134.78;4981139;28;97227;-71
2021/05/14 08:12:29;;;;;;;49.75;30.13;;;;;;;14.12;37.98;100137.44;4977806;28;98913;-71
2021/05/14 08:15:02;;;;;;;7.27;6.57;;;;;;;14.15;37.70;100137.44;4977596;28;97591;-71
2021/05/14 08:17:30;;;;;;;6.70;6.10;;;;;;;14.17;37.19;100133.88;4979801;28;96928;-72
2021/05/14 08:20:00;;;;;;;7.53;5.73;;;;;;;14.19;37.27;100137.44;4980161;28;99522;-73
2021/05/14 08:22:28;;;;;;;5.73;5.20;;;;;;;14.20;37.13;100134.75;4984098;28;98915;-73
2021/05/14 08:24:58;;;;;;;6.83;6.17;;;;;;;14.25;36.93;100132.94;4978565;28;98635;-73
2021/05/14 08:27:25;;;;;;;6.05;5.55;;;;;;;14.24;36.89;100135.63;4983904;28;97296;-73
2021/05/14 08:29:54;;;;;;;5.30;4.90;;;;;;;14.30;36.70;100136.47;4984709;28;97250;-72
2021/05/14 08:32:22;;;;;;;5.90;5.38;;;;;;;14.36;36.67;100135.56;4982799;28;97751;-72
2021/05/14 08:34:50;;;;;;;6.27;5.67;;;;;;;14.32;36.49;100132.00;4984009;28;97833;-73
2021/05/14 08:37:17;;;;;;;5.78;5.00;;;;;;;14.30;36.53;100132.94;4982191;28;97085;-72
2021/05/14 08:39:45;;;;;;;6.85;6.25;;;;;;;14.35;36.29;100128.44;4983357;28;97998;-70
2021/05/14 08:42:13;;;;;;;6.10;5.60;;;;;;;14.38;36.12;100133.78;4980649;28;97795;-72
2021/05/14 08:44:42;;;;;;;5.78;5.28;;;;;;;14.41;35.81;100123.06;4982726;28;96915;-72
2021/05/14 08:47:12;;;;;;;6.45;5.85;;;;;;;14.43;35.69;100134.63;4985592;28;96808;-71
2021/05/14 08:49:40;;;;;;;6.45;5.70;;;;;;;14.40;35.70;100126.63;4983560;28;98868;-72
2021/05/14 08:52:11;;;;;;;6.80;6.10;;;;;;;14.46;35.79;100131.97;4981374;28;98027;-72
2021/05/14 08:54:43;;;;;;;10.25;9.23;;;;;;;14.52;35.75;100131.91;4985198;28;98494;-74
2021/05/14 08:57:12;;;;;;;6.78;6.07;;;;;;;14.55;35.69;100127.50;4987367;28;97343;-74
2021/05/14 08:59:39;;;;;;;6.95;6.20;;;;;;;14.60;35.50;100140.84;4983928;28;97696;-72
2021/05/14 09:02:08;;;;;;;5.32;4.82;;;;;;;14.62;35.55;100133.69;4985917;28;98850;-71
2021/05/14 09:04:37;;;;;;;5.35;4.85;;;;;;;14.67;35.08;100132.75;4967800;28;97926;-72
2021/05/14 09:07:13;;;;;;;4.82;4.35;;;;;;;14.74;35.21;100141.63;4978971;28;97926;-72
2021/05/14 09:09:41;;;;;;;5.43;4.30;;;;;;;14.77;34.76;100145.19;4984791;28;98574;-72
2021/05/14 09:12:09;;;;;;;6.72;5.18;;;;;;;14.77;35.07;100134.47;4984363;28;98984;-74
2021/05/14 09:14:41;;;;;;;4.85;4.45;;;;;;;14.77;34.48;100144.31;4999692;28;97876;-71
2021/05/14 09:17:09;;;;;;;5.30;4.80;;;;;;;14.80;34.75;100141.59;4985388;28;97254;-72
2021/05/14 09:19:39;;;;;;;4.80;4.40;;;;;;;14.84;34.47;100135.34;4982716;28;97600;-72
2021/05/14 09:22:09;;;;;;;4.35;3.95;;;;;;;14.93;34.64;100146.00;4982925;28;99128;-71
2021/05/14 09:24:38;;;;;;;4.10;3.73;;;;;;;14.98;34.85;100149.53;4985919;28;97555;-72
2021/05/14 09:27:17;;;;;;;5.25;4.00;;;;;;;15.05;34.82;100148.56;4983292;28;97527;-72
2021/05/14 09:29:45;;;;;;;4.20;3.90;;;;;;;15.10;34.77;100152.13;4980547;28;97921;-72
2021/05/14 09:32:23;;;;;;;5.85;5.35;;;;;;;15.12;34.54;100148.53;4977773;28;99289;-72
2021/05/14 09:34:53;;;;;;;3.53;2.72;;;;;;;15.28;34.63;100149.31;4983779;28;98163;-72
2021/05/14 09:37:23;;;;;;;2.20;2.17;;;;;;;15.29;34.38;100151.09;4983176;28;97515;-72
2021/05/14 09:40:11;;;;;;;4.20;2.72;;;;;;;15.34;34.50;100156.44;4981763;28;103141;-71
2021/05/14 09:42:39;;;;;;;3.67;3.20;;;;;;;15.32;34.48;100153.75;4997548;28;97790;-73
2021/05/14 09:45:21;;;;;;;5.60;2.40;;;;;;;15.44;34.09;100148.31;4980881;28;96634;-72
2021/05/14 09:48:14;;;;;;;4.50;4.10;;;;;;;15.50;34.45;100147.34;4984098;28;96933;-73
2021/05/14 09:50:46;;;;;;;9.60;7.57;;;;;;;15.46;34.19;100142.91;4984566;28;98209;-73
2021/05/14 09:53:15;;;;;;;3.40;3.10;;;;;;;15.48;33.88;100144.69;4977372;28;100897;-70
2021/05/14 09:55:48;;;;;;;5.05;4.55;;;;;;;15.63;34.02;100147.22;4984237;28;97357;-72
2021/05/14 09:58:19;;;;;;;3.08;2.70;;;;;;;15.65;33.73;100150.78;4982744;28;97750;-72
2021/05/14 10:00:47;;;;;;;3.03;2.90;;;;;;;15.60;33.36;100144.56;4981791;28;97810;-73
2021/05/14 10:03:16;;;;;;;2.58;2.40;;;;;;;15.74;33.66;100141.78;4984557;28;98877;-72
2021/05/14 10:05:46;;;;;;;3.30;3.00;;;;;;;15.67;33.51;100140.03;4983779;28;97556;-72
2021/05/14 10:08:18;;;;;;;2.83;2.63;;;;;;;15.77;33.52;100144.41;4984954;28;97773;-72
2021/05/14 10:10:47;;;;;;;2.65;2.47;;;;;;;15.75;33.58;100136.38;4982083;28;100544;-72
2021/05/14 10:13:15;;;;;;;7.90;7.00;;;;;;;15.70;33.68;100143.56;4983382;28;100585;-72
2021/05/14 10:15:42;;;;;;;3.47;3.17;;;;;;;15.80;33.33;100147.94;4985734;28;97075;-73
2021/05/14 10:18:15;;;;;;;3.33;3.13;;;;;;;15.80;33.42;100145.25;4982536;28;97394;-73
2021/05/14 10:20:43;;;;;;;3.58;3.33;;;;;;;15.76;33.54;100147.97;4983291;28;98136;-72
2021/05/14 10:23:12;;;;;;;4.90;3.80;;;;;;;15.76;33.71;100146.19;4982776;28;97893;-72
2021/05/14 10:25:47;;;;;;;5.40;4.18;;;;;;;15.84;33.70;100144.34;4983860;28;97184;-71
2021/05/14 10:28:18;;;;;;;9.73;8.52;;;;;;;15.91;33.39;100138.00;4981060;28;97408;-72
2021/05/14 10:31:20;;;;;;;7.33;6.63;;;;;;;16.09;33.50;100137.81;4983426;28;97849;-71
2021/05/14 10:33:53;;;;;;;4.53;4.10;;;;;;;16.17;33.06;100136.84;4983800;28;97859;-73
2021/05/14 10:36:41;;;;;;;6.35;5.82;;;;;;;16.20;33.23;100136.78;4981850;28;97855;-73
2021/05/14 10:39:11;;;;;;;4.55;4.25;;;;;;;16.22;33.09;100134.97;4982382;28;97339;-72
2021/05/14 10:41:57;;;;;;;4.55;4.15;;;;;;;16.20;33.13;100131.41;4982351;28;99051;-72
2021/05/14 10:44:43;;;;;;;3.63;3.13;;;;;;;16.21;32.91;100125.16;4983255;28;98768;-72
2021/05/14 10:47:48;;;;;;;21.30;13.25;;;;;;;16.19;33.21;100135.03;4982178;28;97198;-72
2021/05/14 10:50:32;;;;;;;5.70;4.38;;;;;;;16.16;32.22;100127.88;4981330;28;96978;-73
2021/05/14 10:53:28;;;;;;;3.72;3.45;;;;;;;16.25;32.23;100137.66;4995704;28;99477;-73
2021/05/14 10:56:35;;;;;;;6.13;5.28;;;;;;;16.15;32.51;100127.91;4982075;28;97569;-73
2021/05/14 10:59:10;;;;;;;23.80;15.93;;;;;;;16.18;32.70;100130.56;4982329;28;97320;-72
2021/05/14 11:01:40;;;;;;;6.60;4.60;;;;;;;16.12;32.31;100127.97;4981548;28;97251;-73
2021/05/14 11:04:40;;;;;;;6.10;5.50;;;;;;;16.16;32.32;100127.00;4981036;28;98724;-73
2021/05/14 11:07:36;;;;;;;5.07;4.38;;;;;;;16.29;31.91;100134.03;4981974;28;98936;-72
2021/05/14 11:10:30;;;;;;;3.30;3.00;;;;;;;16.36;32.17;100131.22;4982212;28;96882;-73
2021/05/14 11:12:58;;;;;;;3.78;3.47;;;;;;;16.35;32.00;100133.91;4982798;28;97700;-73
2021/05/14 11:15:33;;;;;;;4.00;3.70;;;;;;;16.49;31.59;100130.16;4980523;28;97618;-73
2021/05/14 11:18:26;;;;;;;3.58;3.33;;;;;;;16.73;31.17;100129.84;4982570;28;97779;-73
2021/05/14 11:20:56;;;;;;;3.15;2.97;;;;;;;16.82;31.88;100137.78;4982095;28;97485;-72
2021/05/14 11:23:37;;;;;;;5.10;3.25;;;;;;;16.93;31.39;100140.28;4982245;28;97662;-72
2021/05/14 11:26:07;;;;;;;5.90;4.43;;;;;;;17.00;31.53;100131.22;4981886;28;99285;-73
2021/05/14 11:28:39;;;;;;;8.73;6.85;;;;;;;17.06;31.32;100128.44;4980372;28;99670;-72
2021/05/14 11:31:14;;;;;;;5.70;4.40;;;;;;;17.12;31.48;100144.50;4996225;28;97415;-73
2021/05/14 11:33:43;;;;;;;4.00;3.67;;;;;;;17.16;31.47;100131.88;4983851;28;97782;-72
2021/05/14 11:36:12;;;;;;;4.30;3.60;;;;;;;17.16;31.32;100132.78;4979677;28;98221;-72